KEGI

Duke Field,(Eglin Af Aux Nr 3) Airport

Crestview, Florida, USA
METAR KEGI 161356Z AUTO 06006KT 10SM OVC110 04/M02 A3030 RMK AO2 SLP263 T00431021 $
Observed Flight Rules
Dec-16 @ 13:56 UTC (50 minutes ago) Visual Flight Rules
Wind Visibility Clouds
60° at 6 knots 10 miles
  • Overcast at 11,000' AGL
Temperatures Readings
Current 4°C / 39°F
Dewpoint -2°C / 28°F
Humidity 65%
Altimeter 30.3" Hg
Pressure 1026.3 hPa
Elevation 59
METAR KEGI 161356Z AUTO 06006KT 10SM OVC110 04/M02 A3030 RMK AO2 SLP263 T00431021 $
Observed Flight Rules
Dec-16 @ 13:56 UTC
(50 minutes ago)
VFR
Wind Visibility
60° at 6 knots 10 miles
Clouds
  • Overcast at 11,000' AGL
Temperature Dewpoint
4°C / 39°F -2°C / 28°F
Humidity Altimeter Pressure
65% 30.3" Hg 1026.3 hPa